Lenox Township, Michigan
Current Conditions -  °F | °C
As of 1:55 PM on Sunday 23 Nov 2014 (Local Time) from KMTC Reporting Station
Broken Clouds Broken Clouds  
Wind Chill: 42°   Ceiling: 16000
Heat Index: 47°   Visibility: 7mi
Dew Point: 47°   Wind: 12mph
Humidity: 99%   Direction: 160°SSE
Pressure: 29.78"   Gusts: NA
Location:  42.7851°N, 82.803°W
Report Text: KMTC 231855Z 16010KT 7SM FEW100 BKN160 08/08 A2978 RMK SLP096 T00840083
Loading
Personal Weather Stations






























Interactive Weather Map New forecast layout! Learn more

10-Day Weather Forecast

Advertisements
Track Severe Weather on mobile